Time;durP1;ratioP1;P1;durP2;ratioP2;P2;SDS_P1;SDS_P2;PMS_P1;PMS_P2;Temp;Humidity;BMP_temperature;BMP_pressure;BME280_temperature;BME280_humidity;BME280_pressure;Samples;Min_cycle;Max_cycle;Signal;HPM_P1;HPM_P2
2022/04/11 00:02:13;;;;;;;4.63;1.73;;;;;;;15.45;32.38;97254.16;5074963;28;20043;-26
2022/04/11 00:04:38;;;;;;;3.28;1.60;;;;;;;15.42;32.37;97259.75;5073098;28;20040;-26
2022/04/11 00:07:04;;;;;;;2.55;1.33;;;;;;;15.36;32.49;97256.78;5074675;28;20045;-26
2022/04/11 00:09:29;;;;;;;2.15;1.42;;;;;;;15.42;31.88;97252.31;5074572;28;20025;-26
2022/04/11 00:11:56;;;;;;;2.35;1.50;;;;;;;15.38;31.81;97257.13;5074812;28;20757;-26
2022/04/11 00:14:22;;;;;;;2.50;1.48;;;;;;;15.44;31.97;97257.34;5074809;28;20028;-26
2022/04/11 00:16:48;;;;;;;2.65;1.58;;;;;;;15.52;31.94;97255.16;5074740;28;20028;-26
2022/04/11 00:19:13;;;;;;;1.83;1.50;;;;;;;15.51;31.91;97256.34;5074672;28;20530;-25
2022/04/11 00:21:39;;;;;;;1.83;1.20;;;;;;;15.44;31.98;97255.38;5074153;28;20528;-25
2022/04/11 00:24:05;;;;;;;2.00;1.50;;;;;;;15.38;31.94;97251.66;5074501;28;20032;-26
2022/04/11 00:26:30;;;;;;;2.90;1.20;;;;;;;15.32;32.11;97247.94;5074470;28;20016;-25
2022/04/11 00:28:56;;;;;;;1.83;1.33;;;;;;;15.34;32.11;97250.22;5074604;28;20361;-25
2022/04/11 00:31:22;;;;;;;2.17;1.20;;;;;;;15.46;31.77;97247.47;5074377;28;20636;-26
2022/04/11 00:33:48;;;;;;;2.22;1.30;;;;;;;15.46;31.60;97255.69;5074205;28;20028;-26
2022/04/11 00:36:13;;;;;;;1.85;1.10;;;;;;;15.34;31.67;97244.75;5074105;28;20043;-26
2022/04/11 00:38:39;;;;;;;1.75;1.10;;;;;;;15.34;31.79;97245.50;5074324;28;20096;-26
2022/04/11 00:41:04;;;;;;;2.38;1.50;;;;;;;15.33;31.55;97251.44;5073944;28;20050;-26
2022/04/11 00:43:38;;;;;;;3.20;1.65;;;;;;;15.35;31.49;97246.28;5074030;28;20028;-26
2022/04/11 00:46:06;;;;;;;2.28;1.42;;;;;;;15.37;31.43;97246.63;5073600;28;20051;-25
2022/04/11 00:48:32;;;;;;;2.25;1.35;;;;;;;15.32;31.24;97247.94;5074767;28;20030;-26
2022/04/11 00:51:08;;;;;;;3.13;1.30;;;;;;;15.40;31.22;97251.22;5076059;28;20111;-25
2022/04/11 00:53:38;;;;;;;1.80;1.17;;;;;;;15.41;31.26;97244.53;5075960;28;20112;-25
2022/04/11 00:56:04;;;;;;;2.85;1.38;;;;;;;15.42;31.37;97243.34;5074557;28;20469;-26
2022/04/11 00:58:30;;;;;;;2.08;1.23;;;;;;;15.36;31.22;97251.31;5075773;28;20082;-25
2022/04/11 01:00:56;;;;;;;1.75;1.17;;;;;;;15.44;31.28;97251.88;5075873;28;20041;-25
2022/04/11 01:03:22;;;;;;;2.70;1.20;;;;;;;15.44;31.34;97243.69;5075813;28;20461;-26
2022/04/11 01:05:47;;;;;;;1.80;1.17;;;;;;;15.38;31.07;97251.66;5075647;28;20111;-26
2022/04/11 01:08:13;;;;;;;3.65;1.50;;;;;;;15.43;31.29;97247.63;5074476;28;20051;-26
2022/04/11 01:10:38;;;;;;;2.50;1.40;;;;;;;15.44;31.23;97246.41;5074303;28;20021;-26
2022/04/11 01:13:04;;;;;;;3.88;1.38;;;;;;;15.40;31.13;97248.47;5075702;28;20388;-26
2022/04/11 01:15:30;;;;;;;1.27;1.10;;;;;;;15.41;31.09;97248.03;5075507;28;20016;-26
2022/04/11 01:17:55;;;;;;;1.70;1.05;;;;;;;15.41;31.03;97245.31;5075761;28;20028;-25
2022/04/11 01:20:21;;;;;;;2.95;1.40;;;;;;;15.30;31.56;97249.56;5075847;28;20016;-25
2022/04/11 01:22:48;;;;;;;2.70;1.10;;;;;;;15.28;31.42;97258.22;5075386;28;20039;-25
2022/04/11 01:25:14;;;;;;;3.08;1.13;;;;;;;15.40;31.23;97243.78;5075335;28;20063;-26
2022/04/11 01:27:41;;;;;;;3.88;1.40;;;;;;;15.28;31.57;97244.53;5075438;28;20365;-26
2022/04/11 01:30:08;;;;;;;2.00;0.98;;;;;;;15.29;31.31;97243.34;5075349;28;20034;-25
2022/04/11 01:32:35;;;;;;;2.25;1.25;;;;;;;15.32;31.09;97256.16;5075299;28;20024;-26
2022/04/11 01:35:01;;;;;;;1.60;1.13;;;;;;;15.33;31.28;97243.97;5073871;28;20029;-26
2022/04/11 01:37:27;;;;;;;3.70;1.38;;;;;;;15.30;30.89;97244.13;5075002;28;20056;-25
2022/04/11 01:39:53;;;;;;;1.65;1.17;;;;;;;15.32;30.66;97247.94;5075119;28;20059;-26
2022/04/11 01:42:19;;;;;;;2.45;1.15;;;;;;;15.26;30.99;97249.69;5075042;28;20032;-26
2022/04/11 01:44:44;;;;;;;2.55;1.40;;;;;;;15.31;30.99;97248.38;5075070;28;20028;-27
2022/04/11 01:47:10;;;;;;;2.53;1.00;;;;;;;15.23;31.04;97242.34;5074949;28;20104;-26
2022/04/11 01:49:35;;;;;;;1.88;1.00;;;;;;;15.29;30.87;97240.63;5074935;28;20024;-25
2022/04/11 01:52:01;;;;;;;1.30;0.95;;;;;;;15.35;31.01;97249.78;5075006;28;20479;-26
2022/04/11 01:54:26;;;;;;;3.17;1.08;;;;;;;15.31;30.89;97251.13;5074734;28;20016;-26
2022/04/11 01:56:52;;;;;;;2.75;1.20;;;;;;;15.26;30.99;97248.91;5074691;28;20027;-25
2022/04/11 01:59:17;;;;;;;1.88;1.10;;;;;;;15.27;30.54;97256.69;5074696;28;20357;-25
2022/04/11 02:01:43;;;;;;;1.55;1.00;;;;;;;15.34;30.78;97256.44;5074677;28;20035;-25
2022/04/11 02:04:09;;;;;;;2.10;1.10;;;;;;;15.29;30.71;97267.94;5073212;28;20111;-26
2022/04/11 02:06:35;;;;;;;1.30;1.08;;;;;;;15.31;30.47;97262.81;5074132;28;20358;-26
2022/04/11 02:09:02;;;;;;;2.03;0.90;;;;;;;15.36;30.58;97264.22;5074685;28;20099;-26
2022/04/11 02:11:28;;;;;;;1.45;0.80;;;;;;;15.26;30.56;97271.53;5073234;28;20450;-26
2022/04/11 02:13:53;;;;;;;1.67;1.00;;;;;;;15.31;30.64;97262.03;5073245;28;20017;-25
2022/04/11 02:16:19;;;;;;;3.72;1.05;;;;;;;15.33;30.55;97265.84;5074314;28;20024;-26
2022/04/11 02:18:44;;;;;;;1.83;1.00;;;;;;;15.33;30.41;97274.03;5074244;28;20135;-25
2022/04/11 02:21:10;;;;;;;2.60;0.95;;;;;;;15.26;30.54;97268.81;5074049;28;20031;-26
2022/04/11 02:23:35;;;;;;;1.52;0.90;;;;;;;15.25;30.47;97261.03;5074278;28;20023;-25
2022/04/11 02:26:02;;;;;;;1.63;0.90;;;;;;;15.24;30.49;97263.00;5074326;28;20100;-26
2022/04/11 02:28:29;;;;;;;1.10;0.90;;;;;;;15.28;30.62;97263.69;5073953;28;20451;-25
2022/04/11 02:30:55;;;;;;;2.22;1.10;;;;;;;15.32;30.89;97264.34;5074042;28;20020;-26
2022/04/11 02:33:20;;;;;;;2.78;1.20;;;;;;;15.22;30.77;97270.09;5074314;28;20016;-25
2022/04/11 02:35:45;;;;;;;1.58;0.80;;;;;;;15.19;30.68;97265.53;5074233;28;20031;-26
2022/04/11 02:38:11;;;;;;;2.22;0.82;;;;;;;15.19;30.76;97266.31;5089772;28;20032;-26
2022/04/11 02:40:37;;;;;;;2.28;0.98;;;;;;;15.28;30.64;97265.66;5074152;28;20035;-26
2022/04/11 02:43:02;;;;;;;1.98;0.80;;;;;;;15.26;30.47;97268.81;5073708;28;20112;-26
2022/04/11 02:45:28;;;;;;;1.77;0.80;;;;;;;15.30;30.57;97261.28;5073935;28;20055;-26
2022/04/11 02:47:55;;;;;;;0.80;0.63;;;;;;;15.22;30.29;97270.88;5071469;28;20801;-25
2022/04/11 02:50:20;;;;;;;0.80;0.63;;;;;;;15.22;30.34;97259.94;5071866;28;20032;-27
2022/04/11 02:52:47;;;;;;;1.35;0.75;;;;;;;15.24;30.51;97265.75;5073754;28;20112;-25
2022/04/11 02:55:12;;;;;;;2.50;0.73;;;;;;;15.32;30.27;97269.81;5073677;28;20044;-25
2022/04/11 02:57:38;;;;;;;1.55;0.82;;;;;;;15.26;30.33;97265.31;5073713;28;20051;-26
2022/04/11 03:00:10;;;;;;;1.90;0.80;;;;;;;15.19;30.45;97266.31;5073735;28;20469;-26
2022/04/11 03:02:36;;;;;;;1.63;0.70;;;;;;;15.21;30.39;97263.09;5073682;28;20033;-25
2022/04/11 03:05:02;;;;;;;1.02;0.65;;;;;;;15.22;30.40;97270.09;5072193;28;20074;-26
2022/04/11 03:07:28;;;;;;;1.50;0.80;;;;;;;15.20;30.24;97264.34;5073470;28;20400;-26
2022/04/11 03:09:54;;;;;;;1.48;0.80;;;;;;;15.20;30.22;97256.16;5073594;28;20490;-25
2022/04/11 03:12:20;;;;;;;1.80;0.98;;;;;;;15.28;30.47;97262.91;5073457;28;20597;-26
2022/04/11 03:14:48;;;;;;;1.08;0.63;;;;;;;15.25;30.23;97261.81;5072077;28;20135;-26
2022/04/11 03:17:13;;;;;;;1.92;0.95;;;;;;;15.22;29.98;97259.94;5073471;28;20032;-26
2022/04/11 03:19:39;;;;;;;1.67;0.88;;;;;;;15.23;30.41;97261.47;5073313;28;20034;-26
2022/04/11 03:22:04;;;;;;;2.15;0.98;;;;;;;15.16;29.96;97267.16;5073371;28;20024;-26
2022/04/11 03:24:30;;;;;;;2.95;0.65;;;;;;;15.15;30.48;97271.09;5073184;28;20047;-26
2022/04/11 03:26:55;;;;;;;1.48;0.90;;;;;;;15.18;30.37;97261.28;5073543;28;20407;-25
2022/04/11 03:29:21;;;;;;;1.98;1.00;;;;;;;15.15;30.26;97256.66;5073501;28;20020;-26
2022/04/11 03:31:48;;;;;;;1.15;0.70;;;;;;;15.14;30.22;97263.34;5077832;28;20488;-25
2022/04/11 03:34:15;;;;;;;2.28;0.95;;;;;;;15.18;30.41;97277.66;5080104;28;20023;-25
2022/04/11 03:36:41;;;;;;;2.67;1.00;;;;;;;15.13;30.43;97268.03;5079734;28;20066;-26
2022/04/11 03:39:07;;;;;;;1.33;0.70;;;;;;;15.16;30.16;97272.63;5080071;28;20028;-26
2022/04/11 03:41:33;;;;;;;3.83;0.88;;;;;;;15.20;30.26;97281.50;5079909;28;20021;-26
2022/04/11 03:43:58;;;;;;;2.42;0.70;;;;;;;15.24;30.12;97267.72;5079746;28;20025;-26
2022/04/11 03:46:23;;;;;;;2.63;0.90;;;;;;;15.18;29.86;97283.91;5079812;28;20044;-26
2022/04/11 03:48:49;;;;;;;2.17;1.00;;;;;;;15.16;29.94;97274.59;5079702;28;20060;-26
2022/04/11 03:51:15;;;;;;;2.90;0.80;;;;;;;15.14;29.93;97279.72;5078411;28;20033;-26
2022/04/11 03:53:42;;;;;;;2.05;0.88;;;;;;;15.19;30.06;97277.22;5080004;28;20019;-26
2022/04/11 03:56:07;;;;;;;2.47;0.88;;;;;;;15.08;29.71;97274.78;5079649;28;20193;-26
2022/04/11 03:58:33;;;;;;;1.02;0.77;;;;;;;15.15;29.83;97276.56;5079954;28;20016;-26
2022/04/11 04:00:59;;;;;;;1.70;0.77;;;;;;;15.16;29.83;97275.38;5079769;28;20380;-26
2022/04/11 04:03:25;;;;;;;3.67;1.00;;;;;;;15.17;30.07;97273.41;5079501;28;20055;-26
2022/04/11 04:05:51;;;;;;;2.72;0.80;;;;;;;15.18;30.14;97270.22;5079921;28;20052;-26
2022/04/11 04:08:17;;;;;;;1.38;0.60;;;;;;;15.19;29.86;97279.97;5079437;28;20044;-25
2022/04/11 04:10:44;;;;;;;1.75;0.90;;;;;;;15.19;29.98;97279.97;5079613;28;20021;-26
2022/04/11 04:13:10;;;;;;;2.55;1.20;;;;;;;15.04;30.05;97278.84;5079618;28;20021;-26
2022/04/11 04:15:36;;;;;;;2.17;0.90;;;;;;;15.04;30.09;97287.81;5079540;28;20035;-25
2022/04/11 04:18:03;;;;;;;1.70;0.75;;;;;;;15.10;29.94;97285.28;5079393;28;20039;-26
2022/04/11 04:20:29;;;;;;;2.42;0.88;;;;;;;15.02;30.00;97283.97;5079890;28;20047;-26
2022/04/11 04:22:56;;;;;;;2.28;0.90;;;;;;;15.03;30.00;97285.50;5079575;28;20468;-26
2022/04/11 04:25:22;;;;;;;2.35;0.85;;;;;;;15.08;30.07;97288.44;5079409;28;20024;-26
2022/04/11 04:27:48;;;;;;;2.53;0.90;;;;;;;15.00;29.93;97297.28;5079361;28;20035;-26
2022/04/11 04:30:13;;;;;;;2.38;0.85;;;;;;;15.03;30.07;97289.00;5079699;28;20020;-25
2022/04/11 04:32:40;;;;;;;3.40;1.35;;;;;;;15.05;30.04;97288.56;5079405;28;20032;-25
2022/04/11 04:35:08;;;;;;;3.40;1.30;;;;;;;15.08;29.98;97279.53;5079356;28;20543;-25
2022/04/11 04:37:33;;;;;;;1.42;1.00;;;;;;;15.08;29.80;97283.00;5079225;28;20036;-26
2022/04/11 04:39:59;;;;;;;3.75;1.58;;;;;;;15.07;29.90;97280.72;5079600;28;20032;-26
2022/04/11 04:42:26;;;;;;;6.13;2.10;;;;;;;15.12;29.87;97291.09;5078017;28;20028;-25
2022/04/11 04:44:52;;;;;;;4.43;2.30;;;;;;;15.09;29.90;97291.94;5076002;28;20048;-25
2022/04/11 04:47:18;;;;;;;5.07;2.33;;;;;;;15.00;29.85;97291.84;5075973;28;20456;-25
2022/04/11 04:49:44;;;;;;;7.90;2.28;;;;;;;15.11;29.82;97289.56;5075940;28;20052;-26
2022/04/11 04:52:10;;;;;;;5.25;2.83;;;;;;;15.08;29.99;97298.66;5076054;28;20081;-26
2022/04/11 04:54:37;;;;;;;6.35;3.05;;;;;;;15.12;29.76;97302.03;5074570;28;20422;-26
2022/04/11 04:57:04;;;;;;;5.75;3.60;;;;;;;15.13;29.96;97302.78;5076016;28;20035;-26
2022/04/11 04:59:29;;;;;;;6.25;3.60;;;;;;;15.05;29.85;97304.97;5075710;28;20032;-25
2022/04/11 05:01:55;;;;;;;6.30;3.30;;;;;;;15.01;29.92;97309.75;5075852;28;20032;-25
2022/04/11 05:04:21;;;;;;;7.43;3.28;;;;;;;15.04;29.70;97308.91;5076064;28;20400;-26
2022/04/11 05:06:46;;;;;;;5.13;2.75;;;;;;;15.07;30.01;97300.59;5075539;28;20049;-25
2022/04/11 05:09:12;;;;;;;5.45;2.83;;;;;;;15.06;29.80;97306.50;5075934;28;20031;-26
2022/04/11 05:11:37;;;;;;;4.72;2.88;;;;;;;14.98;30.22;97310.63;5075681;28;20032;-26
2022/04/11 05:14:03;;;;;;;4.15;2.50;;;;;;;15.08;30.08;97309.56;5075445;28;20017;-26
2022/04/11 05:16:28;;;;;;;4.20;2.22;;;;;;;15.08;29.90;97307.56;5075668;28;20112;-26
2022/04/11 05:18:54;;;;;;;5.00;2.15;;;;;;;15.07;29.96;97308.81;5075516;28;20023;-26
2022/04/11 05:21:19;;;;;;;4.13;2.08;;;;;;;15.03;29.97;97304.63;5074161;28;20028;-26
2022/04/11 05:23:45;;;;;;;3.60;1.95;;;;;;;15.06;30.21;97314.69;5075387;28;20033;-26
2022/04/11 05:26:10;;;;;;;4.47;1.70;;;;;;;15.01;30.22;97315.22;5072868;28;20108;-27
2022/04/11 05:28:36;;;;;;;2.80;1.80;;;;;;;15.08;30.07;97315.03;5071822;28;20119;-25
2022/04/11 05:31:01;;;;;;;3.38;1.98;;;;;;;15.02;30.27;97316.75;5073209;28;20035;-25
2022/04/11 05:33:27;;;;;;;2.47;1.55;;;;;;;15.12;29.97;97314.91;5073303;28;20033;-26
2022/04/11 05:35:53;;;;;;;3.80;1.98;;;;;;;15.15;30.03;97319.50;5073383;28;20103;-25
2022/04/11 05:38:19;;;;;;;3.50;2.53;;;;;;;15.09;30.22;97327.47;5071476;28;20025;-25
2022/04/11 05:40:45;;;;;;;8.90;4.43;;;;;;;15.14;30.29;97329.69;5073170;28;20031;-26
2022/04/11 05:43:13;;;;;;;8.93;5.28;;;;;;;15.20;30.17;97329.91;5071509;28;20028;-26
2022/04/11 05:45:39;;;;;;;7.10;5.15;;;;;;;15.14;29.94;97335.13;5051661;28;20036;-25
2022/04/11 05:48:05;;;;;;;10.32;6.65;;;;;;;15.12;30.09;97334.81;5053016;28;20552;-26
2022/04/11 05:50:30;;;;;;;10.27;6.20;;;;;;;15.18;30.02;97337.78;5052774;28;20033;-25
2022/04/11 05:52:56;;;;;;;8.52;5.20;;;;;;;15.15;30.02;97335.91;5051453;28;20116;-26
2022/04/11 05:55:23;;;;;;;9.38;5.90;;;;;;;15.13;30.29;97338.31;5052227;28;20404;-26
2022/04/11 05:57:49;;;;;;;10.18;5.82;;;;;;;15.14;30.01;97335.13;5052521;28;20036;-28
2022/04/11 06:00:15;;;;;;;8.68;5.20;;;;;;;15.18;30.08;97352.22;5052832;28;20138;-28
2022/04/11 06:02:41;;;;;;;11.02;5.70;;;;;;;15.12;30.28;97351.19;5052473;28;20104;-25
2022/04/11 06:05:07;;;;;;;9.50;4.85;;;;;;;15.09;30.30;97343.84;5052642;28;20025;-25
2022/04/11 06:07:33;;;;;;;8.07;5.07;;;;;;;15.11;30.02;97349.66;5052322;28;20065;-25
2022/04/11 06:09:59;;;;;;;9.73;4.65;;;;;;;15.12;29.87;97353.16;5052364;28;20396;-25
2022/04/11 06:12:26;;;;;;;6.30;4.05;;;;;;;15.16;29.79;97349.13;5052160;28;20021;-26
2022/04/11 06:14:55;;;;;;;7.03;3.60;;;;;;;15.07;30.08;97344.31;5051702;28;20028;-25
2022/04/11 06:17:23;;;;;;;10.27;3.65;;;;;;;15.15;29.95;97353.06;5052302;28;20029;-25
2022/04/11 06:19:53;;;;;;;4.95;3.22;;;;;;;15.09;29.88;97354.78;5052203;28;20112;-26
2022/04/11 06:22:19;;;;;;;4.50;3.13;;;;;;;15.07;29.81;97351.75;5052280;28;20029;-26
2022/04/11 06:24:46;;;;;;;4.40;3.30;;;;;;;15.12;29.97;97359.41;5052107;28;20089;-25
2022/04/11 06:27:12;;;;;;;4.05;2.83;;;;;;;15.15;29.74;97364.00;5052055;28;20021;-26
2022/04/11 06:29:38;;;;;;;4.70;2.75;;;;;;;15.14;29.67;97364.44;5051928;28;20033;-25
2022/04/11 06:32:05;;;;;;;2.97;2.17;;;;;;;15.17;29.80;97366.31;5051361;28;20039;-26
2022/04/11 06:34:39;;;;;;;3.53;2.67;;;;;;;15.18;29.31;97376.03;5057693;28;20035;-25
2022/04/11 06:37:05;;;;;;;2.72;1.92;;;;;;;15.18;29.82;97381.50;5071835;28;20117;-26
2022/04/11 06:39:31;;;;;;;3.20;2.20;;;;;;;15.09;29.42;97371.94;5069996;28;20461;-26
2022/04/11 06:41:57;;;;;;;3.00;1.88;;;;;;;15.20;29.66;97376.38;5072024;28;20032;-26
2022/04/11 06:44:24;;;;;;;6.20;2.05;;;;;;;15.08;29.35;97377.88;5071850;28;20016;-26
2022/04/11 06:46:50;;;;;;;3.10;1.80;;;;;;;15.11;29.73;97376.97;5071194;28;20104;-26
2022/04/11 06:49:15;;;;;;;3.13;1.70;;;;;;;15.03;29.61;97373.69;5070236;28;20120;-26
2022/04/11 06:51:41;;;;;;;2.08;1.40;;;;;;;15.04;29.44;97396.31;5071600;28;20366;-26
2022/04/11 06:54:06;;;;;;;3.60;1.70;;;;;;;15.08;29.36;97380.59;5071767;28;20077;-26
2022/04/11 06:56:32;;;;;;;3.17;1.90;;;;;;;15.07;29.37;97381.78;5071830;28;20052;-26
2022/04/11 06:58:58;;;;;;;4.28;1.70;;;;;;;14.99;29.85;97378.47;5071800;28;20141;-26
2022/04/11 07:01:23;;;;;;;1.95;1.50;;;;;;;15.02;29.55;97380.34;5071339;28;20033;-25
2022/04/11 07:03:50;;;;;;;3.40;1.48;;;;;;;15.09;29.59;97379.38;5071540;28;20033;-25
2022/04/11 07:06:15;;;;;;;3.47;2.00;;;;;;;14.91;29.73;97382.63;5069805;28;20034;-26
2022/04/11 07:08:41;;;;;;;3.60;2.03;;;;;;;14.99;29.63;97380.44;5071033;28;20029;-25
2022/04/11 07:11:06;;;;;;;4.88;1.80;;;;;;;15.13;29.66;97385.53;5071440;28;20032;-25
2022/04/11 07:13:32;;;;;;;2.60;1.60;;;;;;;15.10;29.77;97384.41;5069503;28;20016;-26
2022/04/11 07:15:58;;;;;;;3.88;2.20;;;;;;;15.11;29.91;97379.72;5071471;28;20051;-26
2022/04/11 07:18:27;;;;;;;2.97;1.70;;;;;;;15.08;29.65;97373.16;5071552;28;20427;-25
2022/04/11 07:20:54;;;;;;;2.67;1.83;;;;;;;14.98;29.85;97376.16;5071408;28;20025;-26
2022/04/11 07:23:20;;;;;;;3.45;1.60;;;;;;;15.09;30.05;97382.09;5071014;28;20036;-26
2022/04/11 07:25:46;;;;;;;3.33;1.70;;;;;;;15.05;29.68;97387.69;5073561;28;20021;-26
2022/04/11 07:28:11;;;;;;;3.05;1.60;;;;;;;15.12;30.20;97388.69;5073270;28;20024;-26
2022/04/11 07:30:37;;;;;;;3.20;1.83;;;;;;;15.06;30.02;97383.00;5073319;28;20025;-26
2022/04/11 07:33:02;;;;;;;3.13;1.83;;;;;;;15.02;30.15;97385.03;5072984;28;20077;-26
2022/04/11 07:35:28;;;;;;;4.15;1.80;;;;;;;14.93;30.27;97395.84;5073232;28;20033;-27
2022/04/11 07:37:53;;;;;;;2.92;1.70;;;;;;;15.01;29.99;97402.63;5073186;28;20069;-26
2022/04/11 07:40:19;;;;;;;2.60;1.95;;;;;;;14.85;30.46;97394.47;5071992;28;20027;-25
2022/04/11 07:42:45;;;;;;;3.53;1.88;;;;;;;14.91;30.03;97398.22;5073233;28;20036;-25
2022/04/11 07:45:10;;;;;;;3.08;1.60;;;;;;;15.08;30.19;97405.19;5073136;28;20029;-25
2022/04/11 07:47:36;;;;;;;2.65;1.63;;;;;;;15.03;30.10;97403.75;5073323;28;20530;-27
2022/04/11 07:50:02;;;;;;;3.33;1.95;;;;;;;15.07;30.38;97401.69;5072546;28;20020;-25
2022/04/11 07:52:28;;;;;;;3.10;1.40;;;;;;;14.96;30.23;97389.53;5072961;28;20089;-26
2022/04/11 07:54:53;;;;;;;3.50;1.80;;;;;;;15.10;30.42;97400.03;5072857;28;20024;-26
2022/04/11 07:57:19;;;;;;;3.38;1.58;;;;;;;15.13;30.52;97404.63;5072146;28;20082;-25
2022/04/11 07:59:45;;;;;;;2.42;1.65;;;;;;;15.07;30.60;97409.13;5072981;28;20027;-25
2022/04/11 08:02:10;;;;;;;4.10;1.60;;;;;;;15.09;30.54;97409.44;5071657;28;20028;-25
2022/04/11 08:04:37;;;;;;;2.95;1.70;;;;;;;15.06;30.49;97415.78;5072744;28;20044;-26
2022/04/11 08:07:03;;;;;;;2.75;1.38;;;;;;;14.09;29.69;97411.19;5072621;28;20076;-27
2022/04/11 08:09:30;;;;;;;2.85;1.60;;;;;;;14.26;30.58;97420.13;5072778;28;20060;-26
2022/04/11 08:11:55;;;;;;;3.72;1.77;;;;;;;14.62;30.63;97426.28;5072922;28;20032;-26
2022/04/11 08:14:21;;;;;;;2.17;1.40;;;;;;;14.80;29.83;97422.31;5073063;28;20384;-28
2022/04/11 08:16:47;;;;;;;2.55;1.50;;;;;;;15.01;29.76;97421.75;5073155;28;20029;-26
2022/04/11 08:19:14;;;;;;;3.60;1.35;;;;;;;14.99;29.94;97433.13;5076543;28;20111;-28
2022/04/11 08:21:39;;;;;;;2.15;1.30;;;;;;;14.96;30.02;97431.22;5076529;28;20504;-26
2022/04/11 08:24:05;;;;;;;3.90;1.60;;;;;;;14.77;30.09;97437.59;5076569;28;20025;-26
2022/04/11 08:26:31;;;;;;;5.25;1.95;;;;;;;15.04;30.57;97440.78;5076655;28;20111;-26
2022/04/11 08:28:56;;;;;;;5.15;1.60;;;;;;;14.96;30.18;97439.44;5076428;28;20480;-26
2022/04/11 08:31:22;;;;;;;3.33;1.48;;;;;;;14.91;30.28;97441.94;5076572;28;20020;-27
2022/04/11 08:33:47;;;;;;;3.80;1.70;;;;;;;14.89;30.73;97452.50;5074965;28;20103;-28
2022/04/11 08:36:13;;;;;;;2.25;1.60;;;;;;;14.96;30.66;97455.81;5076266;28;20020;-26
2022/04/11 08:38:39;;;;;;;5.38;1.65;;;;;;;15.03;30.48;97452.16;5076284;28;20028;-26
2022/04/11 08:41:08;;;;;;;3.63;1.90;;;;;;;14.97;30.61;97446.44;5076207;28;20028;-26
2022/04/11 08:43:36;;;;;;;1.77;1.30;;;;;;;14.95;30.82;97459.00;5076039;28;20032;-26
2022/04/11 08:46:05;;;;;;;3.53;1.63;;;;;;;14.99;30.65;97467.84;5075603;28;20025;-26
2022/04/11 08:48:31;;;;;;;2.97;1.83;;;;;;;14.88;30.96;97464.63;5076250;28;20032;-26
2022/04/11 08:50:57;;;;;;;2.70;1.88;;;;;;;14.81;31.41;97467.56;5075977;28;20028;-26
2022/04/11 08:53:22;;;;;;;5.25;1.70;;;;;;;14.91;31.21;97469.25;5075938;28;20024;-26
2022/04/11 08:55:49;;;;;;;3.88;1.70;;;;;;;14.86;31.51;97467.03;5076055;28;20028;-27
2022/04/11 08:58:15;;;;;;;4.30;1.90;;;;;;;14.96;31.35;97466.75;5075861;28;20365;-26
2022/04/11 09:00:40;;;;;;;3.42;1.42;;;;;;;14.96;31.22;97483.13;5076142;28;20035;-27
2022/04/11 09:03:07;;;;;;;4.30;1.83;;;;;;;14.82;31.52;97467.13;5075644;28;20020;-26
2022/04/11 09:05:33;;;;;;;2.80;1.50;;;;;;;14.88;31.57;97472.81;5076041;28;20391;-26
2022/04/11 09:07:59;;;;;;;4.88;1.80;;;;;;;14.79;32.05;97467.22;5075624;28;20044;-26
2022/04/11 09:10:35;;;;;;;4.78;1.80;;;;;;;14.82;32.13;97471.81;5075744;28;20025;-28
2022/04/11 09:13:07;;;;;;;4.88;1.85;;;;;;;14.78;32.26;97476.59;5075566;28;20036;-26
2022/04/11 09:15:43;;;;;;;2.75;1.67;;;;;;;14.97;32.36;97472.97;5075824;28;20035;-26
2022/04/11 09:18:09;;;;;;;6.05;1.85;;;;;;;14.94;32.35;97480.09;5075534;28;20025;-26
2022/04/11 09:20:35;;;;;;;3.28;1.80;;;;;;;14.92;32.65;97487.16;5075561;28;20472;-26
2022/04/11 09:23:01;;;;;;;3.03;1.48;;;;;;;14.88;32.53;97481.03;5073689;28;20698;-26
2022/04/11 09:25:31;;;;;;;4.05;1.65;;;;;;;14.89;32.80;97482.56;5073306;28;20043;-26
2022/04/11 09:28:09;;;;;;;2.47;1.55;;;;;;;14.88;32.69;97481.03;5074467;28;20024;-26
2022/04/11 09:30:35;;;;;;;3.95;1.52;;;;;;;15.04;32.41;97481.78;5075068;28;20024;-26
2022/04/11 09:33:05;;;;;;;2.72;1.38;;;;;;;15.01;32.53;97479.88;5075197;28;20107;-28
2022/04/11 09:35:44;;;;;;;2.67;1.75;;;;;;;14.72;33.09;97477.09;5075262;28;20052;-27
2022/04/11 09:38:29;;;;;;;3.97;1.67;;;;;;;14.56;33.45;97476.38;5075112;28;20042;-28
2022/04/11 09:40:56;;;;;;;4.05;1.63;;;;;;;14.85;32.37;97473.69;5075186;28;20021;-26
2022/04/11 09:43:30;;;;;;;3.75;1.92;;;;;;;14.58;32.98;97472.00;5073665;28;20112;-26
2022/04/11 09:45:56;;;;;;;2.50;1.52;;;;;;;14.93;32.85;97477.78;5074818;28;20024;-26
2022/04/11 09:48:27;;;;;;;2.70;1.30;;;;;;;14.63;33.02;97474.22;5074738;28;20021;-26
2022/04/11 09:50:55;;;;;;;3.40;1.38;;;;;;;14.86;32.89;97486.13;5075132;28;20082;-26
2022/04/11 09:53:23;;;;;;;2.47;1.20;;;;;;;14.58;32.77;97466.56;5072842;28;20020;-26
2022/04/11 09:55:51;;;;;;;2.70;1.27;;;;;;;14.62;33.22;97475.41;5073185;28;20090;-26
2022/04/11 09:58:19;;;;;;;2.45;1.52;;;;;;;14.95;32.90;97475.38;5072211;28;20047;-26
2022/04/11 10:00:45;;;;;;;2.60;1.38;;;;;;;15.00;33.01;97472.13;5073141;28;20067;-26
2022/04/11 10:03:11;;;;;;;4.55;1.45;;;;;;;14.84;33.05;97475.63;5074709;28;20034;-26
2022/04/11 10:05:39;;;;;;;2.85;1.33;;;;;;;14.91;33.42;97471.97;5074624;28;20383;-27
2022/04/11 10:08:06;;;;;;;2.15;1.27;;;;;;;15.17;33.07;97476.38;5074237;28;20068;-26
2022/04/11 10:10:39;;;;;;;3.83;1.38;;;;;;;15.21;32.92;97470.78;5074750;28;20492;-27
2022/04/11 10:13:14;;;;;;;2.05;1.25;;;;;;;15.25;33.39;97474.97;5074583;28;20044;-26
2022/04/11 10:15:43;;;;;;;4.25;1.38;;;;;;;15.24;33.19;97472.66;5074519;28;20027;-26
2022/04/11 10:18:12;;;;;;;3.75;1.60;;;;;;;15.27;32.94;97461.63;5072938;28;20038;-26
2022/04/11 10:20:42;;;;;;;2.40;1.50;;;;;;;15.30;33.14;97471.72;5074461;28;20512;-27
2022/04/11 10:23:07;;;;;;;5.07;1.50;;;;;;;14.96;33.57;97490.59;5074176;28;20101;-27
2022/04/11 10:25:46;;;;;;;1.65;1.23;;;;;;;15.03;33.50;97463.06;5074254;28;20465;-26
2022/04/11 10:28:23;;;;;;;2.08;0.90;;;;;;;15.09;33.54;97464.06;5074340;28;20025;-26
2022/04/11 10:31:05;;;;;;;2.05;1.10;;;;;;;15.19;33.18;97465.78;5074425;28;20032;-26
2022/04/11 10:33:51;;;;;;;2.33;1.00;;;;;;;15.10;33.16;97466.38;5074065;28;20555;-28
2022/04/11 10:36:35;;;;;;;2.40;0.90;;;;;;;15.12;33.75;97463.22;5074228;28;20036;-26
2022/04/11 10:39:13;;;;;;;2.55;1.10;;;;;;;15.19;33.07;97462.28;5074031;28;20025;-27
2022/04/11 10:41:57;;;;;;;2.08;1.10;;;;;;;15.32;33.34;97446.69;5073730;28;20021;-27
2022/04/11 10:44:56;;;;;;;2.50;1.20;;;;;;;15.24;33.51;97445.34;5073793;28;20021;-26
2022/04/11 10:47:26;;;;;;;4.15;1.10;;;;;;;15.32;33.49;97452.91;5073786;28;20077;-28
2022/04/11 10:49:53;;;;;;;1.77;1.08;;;;;;;15.38;33.46;97447.69;5073884;28;20107;-27
2022/04/11 10:52:33;;;;;;;1.92;1.00;;;;;;;15.38;33.40;97453.91;5072575;28;20078;-26
2022/04/11 10:55:09;;;;;;;1.48;0.93;;;;;;;15.37;33.53;97451.59;5072329;28;20498;-27
2022/04/11 10:57:38;;;;;;;2.05;0.98;;;;;;;15.45;33.48;97440.03;5073875;28;20024;-26
2022/04/11 11:00:14;;;;;;;3.88;2.15;;;;;;;15.19;34.03;97443.91;5073563;28;20024;-27
2022/04/11 11:02:56;;;;;;;1.95;0.82;;;;;;;15.37;34.02;97444.19;5073809;28;20023;-27
2022/04/11 11:05:27;;;;;;;5.80;1.48;;;;;;;15.34;34.00;97427.88;5073911;28;20043;-28
2022/04/11 11:10:45;;;;;;;3.97;1.50;;;;;;;15.41;34.21;97425.72;5073498;28;20028;-27
2022/04/11 11:13:30;;;;;;;2.25;1.25;;;;;;;15.41;34.13;97431.19;5073444;28;20017;-26
2022/04/11 11:16:10;;;;;;;2.72;1.58;;;;;;;15.41;34.28;97433.16;5073725;28;20025;-27
2022/04/11 11:21:19;;;;;;;2.83;1.50;;;;;;;15.52;33.72;97441.81;5073436;28;20024;-28
2022/04/11 11:24:10;;;;;;;2.65;1.45;;;;;;;15.55;33.91;97429.28;5073356;28;20107;-29
2022/04/11 11:26:45;;;;;;;2.70;1.48;;;;;;;15.53;33.75;97432.41;5073251;28;20055;-26
2022/04/11 11:29:33;;;;;;;3.42;1.45;;;;;;;15.50;33.95;97443.44;5073612;28;20103;-26
2022/04/11 11:32:00;;;;;;;2.25;1.40;;;;;;;15.47;33.95;97445.06;5065441;28;20036;-26
2022/04/11 11:34:28;;;;;;;2.50;1.15;;;;;;;15.46;34.16;97438.84;5072038;28;20420;-28
2022/04/11 11:37:02;;;;;;;1.88;1.27;;;;;;;15.42;34.27;97432.72;5073209;28;20025;-26
2022/04/11 11:39:29;;;;;;;3.70;1.08;;;;;;;15.45;34.19;97426.38;5071848;28;20048;-27
2022/04/11 11:42:00;;;;;;;2.03;1.10;;;;;;;15.48;34.35;97423.97;5073304;28;20032;-26